sensor_id;sensor_type;location;lat;lon;timestamp;temperature;humidity
35027;DHT22;60696;51.426;6.934;2024-03-23T05:00:25;5.80;1.00
35027;DHT22;60696;51.426;6.934;2024-03-23T05:02:51;5.90;1.00
35027;DHT22;60696;51.426;6.934;2024-03-23T05:05:18;5.80;1.00
35027;DHT22;60696;51.426;6.934;2024-03-23T05:07:44;5.80;1.00
35027;DHT22;60696;51.426;6.934;2024-03-23T05:10:10;5.90;1.00
35027;DHT22;60696;51.426;6.934;2024-03-23T05:12:39;5.80;1.00
35027;DHT22;60696;51.426;6.934;2024-03-23T05:15:06;5.80;1.00
35027;DHT22;60696;51.426;6.934;2024-03-23T05:17:33;5.80;1.00
35027;DHT22;60696;51.426;6.934;2024-03-23T05:19:59;5.80;1.00
35027;DHT22;60696;51.426;6.934;2024-03-23T05:22:24;5.90;1.00
35027;DHT22;60696;51.426;6.934;2024-03-23T05:24:50;5.80;1.00
35027;DHT22;60696;51.426;6.934;2024-03-23T05:27:16;5.70;1.00
35027;DHT22;60696;51.426;6.934;2024-03-23T05:29:41;5.70;1.00
35027;DHT22;60696;51.426;6.934;2024-03-23T05:32:07;5.70;1.00
35027;DHT22;60696;51.426;6.934;2024-03-23T05:34:33;5.70;1.00
35027;DHT22;60696;51.426;6.934;2024-03-23T05:36:59;5.80;1.00
35027;DHT22;60696;51.426;6.934;2024-03-23T05:39:24;5.80;16.40
35027;DHT22;60696;51.426;6.934;2024-03-23T05:41:50;5.80;1.00
35027;DHT22;60696;51.426;6.934;2024-03-23T05:44:16;5.80;1.00
35027;DHT22;60696;51.426;6.934;2024-03-23T05:46:42;5.80;1.00
35027;DHT22;60696;51.426;6.934;2024-03-23T05:49:08;5.80;1.00
35027;DHT22;60696;51.426;6.934;2024-03-23T05:51:34;5.70;1.00
35027;DHT22;60696;51.426;6.934;2024-03-23T05:54:00;5.80;1.00
35027;DHT22;60696;51.426;6.934;2024-03-23T05:56:26;5.80;1.00
35027;DHT22;60696;51.426;6.934;2024-03-23T05:58:52;5.80;1.00
35027;DHT22;60696;51.426;6.934;2024-03-23T06:01:18;5.80;1.00
35027;DHT22;60696;51.426;6.934;2024-03-23T06:03:43;5.90;1.00
35027;DHT22;60696;51.426;6.934;2024-03-23T06:06:10;5.90;1.00
35027;DHT22;60696;51.426;6.934;2024-03-23T06:08:37;5.90;99.90
35027;DHT22;60696;51.426;6.934;2024-03-23T06:11:04;5.80;99.90
35027;DHT22;60696;51.426;6.934;2024-03-23T06:13:31;5.90;99.90
35027;DHT22;60696;51.426;6.934;2024-03-23T06:15:57;5.90;99.90
35027;DHT22;60696;51.426;6.934;2024-03-23T06:18:24;5.90;99.90
35027;DHT22;60696;51.426;6.934;2024-03-23T06:20:49;5.90;99.90
35027;DHT22;60696;51.426;6.934;2024-03-23T06:23:15;5.90;99.90
35027;DHT22;60696;51.426;6.934;2024-03-23T06:25:42;6.00;99.90
35027;DHT22;60696;51.426;6.934;2024-03-23T06:28:08;6.00;99.90
35027;DHT22;60696;51.426;6.934;2024-03-23T06:30:34;6.00;99.90
35027;DHT22;60696;51.426;6.934;2024-03-23T06:32:59;6.00;99.90
35027;DHT22;60696;51.426;6.934;2024-03-23T06:35:25;6.10;99.90
35027;DHT22;60696;51.426;6.934;2024-03-23T06:37:50;6.10;99.90
35027;DHT22;60696;51.426;6.934;2024-03-23T06:40:16;6.20;99.90
35027;DHT22;60696;51.426;6.934;2024-03-23T06:42:42;6.30;99.90
35027;DHT22;60696;51.426;6.934;2024-03-23T06:45:08;6.30;99.90
35027;DHT22;60696;51.426;6.934;2024-03-23T06:47:33;6.40;99.90
35027;DHT22;60696;51.426;6.934;2024-03-23T06:50:03;6.30;99.90
35027;DHT22;60696;51.426;6.934;2024-03-23T06:52:29;6.40;99.90
35027;DHT22;60696;51.426;6.934;2024-03-23T06:54:55;6.50;26.00
35027;DHT22;60696;51.426;6.934;2024-03-23T06:57:21;6.50;1.00
35027;DHT22;60696;51.426;6.934;2024-03-23T06:59:47;6.60;1.00
35027;DHT22;60696;51.426;6.934;2024-03-23T07:02:12;6.70;1.00
35027;DHT22;60696;51.426;6.934;2024-03-23T07:04:38;6.80;99.90
35027;DHT22;60696;51.426;6.934;2024-03-23T07:07:06;6.90;1.00
35027;DHT22;60696;51.426;6.934;2024-03-23T07:09:32;7.20;99.90
35027;DHT22;60696;51.426;6.934;2024-03-23T07:11:58;7.20;99.90
35027;DHT22;60696;51.426;6.934;2024-03-23T07:14:24;7.40;99.90
35027;DHT22;60696;51.426;6.934;2024-03-23T07:16:50;7.50;99.90
35027;DHT22;60696;51.426;6.934;2024-03-23T07:19:18;7.60;1.00
35027;DHT22;60696;51.426;6.934;2024-03-23T07:21:44;7.60;99.90
35027;DHT22;60696;51.426;6.934;2024-03-23T07:24:10;7.60;1.00
35027;DHT22;60696;51.426;6.934;2024-03-23T07:26:36;7.70;1.00
35027;DHT22;60696;51.426;6.934;2024-03-23T07:29:04;7.80;99.90
35027;DHT22;60696;51.426;6.934;2024-03-23T07:31:29;7.90;99.90
35027;DHT22;60696;51.426;6.934;2024-03-23T07:33:55;7.90;99.90
35027;DHT22;60696;51.426;6.934;2024-03-23T07:36:21;8.10;99.90
35027;DHT22;60696;51.426;6.934;2024-03-23T07:38:46;8.40;1.00
35027;DHT22;60696;51.426;6.934;2024-03-23T07:41:15;8.70;99.90
35027;DHT22;60696;51.426;6.934;2024-03-23T07:43:43;8.90;99.90
35027;DHT22;60696;51.426;6.934;2024-03-23T07:46:08;9.40;99.90
35027;DHT22;60696;51.426;6.934;2024-03-23T07:48:34;9.90;1.00
35027;DHT22;60696;51.426;6.934;2024-03-23T07:51:09;10.40;99.90
35027;DHT22;60696;51.426;6.934;2024-03-23T07:53:36;10.70;1.00
35027;DHT22;60696;51.426;6.934;2024-03-23T07:56:06;11.50;99.90
35027;DHT22;60696;51.426;6.934;2024-03-23T07:58:32;12.20;1.00
35027;DHT22;60696;51.426;6.934;2024-03-23T08:01:06;12.50;1.00
35027;DHT22;60696;51.426;6.934;2024-03-23T08:03:35;12.60;1.00
35027;DHT22;60696;51.426;6.934;2024-03-23T08:06:17;12.60;1.00
35027;DHT22;60696;51.426;6.934;2024-03-23T08:08:46;12.10;99.90
35027;DHT22;60696;51.426;6.934;2024-03-23T08:11:12;11.30;1.00
35027;DHT22;60696;51.426;6.934;2024-03-23T08:13:40;10.90;99.90
35027;DHT22;60696;51.426;6.934;2024-03-23T08:16:05;11.50;99.90
35027;DHT22;60696;51.426;6.934;2024-03-23T08:18:31;12.30;1.00
35027;DHT22;60696;51.426;6.934;2024-03-23T08:21:04;12.30;99.90
35027;DHT22;60696;51.426;6.934;2024-03-23T08:23:31;12.00;99.90
35027;DHT22;60696;51.426;6.934;2024-03-23T08:26:00;11.10;99.90
35027;DHT22;60696;51.426;6.934;2024-03-23T08:28:26;10.60;1.00
35027;DHT22;60696;51.426;6.934;2024-03-23T08:30:53;11.30;1.00
35027;DHT22;60696;51.426;6.934;2024-03-23T08:33:19;11.80;99.90
35027;DHT22;60696;51.426;6.934;2024-03-23T08:38:25;12.40;99.90
35027;DHT22;60696;51.426;6.934;2024-03-23T08:43:23;11.70;1.00
35027;DHT22;60696;51.426;6.934;2024-03-23T08:45:49;10.90;99.90
35027;DHT22;60696;51.426;6.934;2024-03-23T08:48:16;10.30;1.00
35027;DHT22;60696;51.426;6.934;2024-03-23T08:50:41;9.60;1.00
35027;DHT22;60696;51.426;6.934;2024-03-23T08:53:07;9.20;99.90
35027;DHT22;60696;51.426;6.934;2024-03-23T08:55:33;8.70;99.90
35027;DHT22;60696;51.426;6.934;2024-03-23T08:57:58;8.20;17.50
35027;DHT22;60696;51.426;6.934;2024-03-23T09:00:25;8.00;99.90
35027;DHT22;60696;51.426;6.934;2024-03-23T09:02:51;7.90;99.90
35027;DHT22;60696;51.426;6.934;2024-03-23T09:05:16;7.90;99.90
35027;DHT22;60696;51.426;6.934;2024-03-23T09:07:42;8.00;99.90
35027;DHT22;60696;51.426;6.934;2024-03-23T09:10:08;8.10;99.90
35027;DHT22;60696;51.426;6.934;2024-03-23T09:12:33;8.20;99.90
35027;DHT22;60696;51.426;6.934;2024-03-23T09:14:59;8.20;99.90
35027;DHT22;60696;51.426;6.934;2024-03-23T09:17:25;8.20;1.00
35027;DHT22;60696;51.426;6.934;2024-03-23T09:19:50;8.30;99.90
35027;DHT22;60696;51.426;6.934;2024-03-23T09:22:16;8.80;99.90
35027;DHT22;60696;51.426;6.934;2024-03-23T09:24:41;10.00;99.90
35027;DHT22;60696;51.426;6.934;2024-03-23T09:27:07;11.20;99.90
35027;DHT22;60696;51.426;6.934;2024-03-23T09:29:33;12.10;1.00
35027;DHT22;60696;51.426;6.934;2024-03-23T09:31:58;13.00;99.90
35027;DHT22;60696;51.426;6.934;2024-03-23T09:34:24;13.10;99.90
35027;DHT22;60696;51.426;6.934;2024-03-23T09:36:52;13.60;6.70
35027;DHT22;60696;51.426;6.934;2024-03-23T09:39:18;12.60;1.00
35027;DHT22;60696;51.426;6.934;2024-03-23T09:41:45;12.60;99.90
35027;DHT22;60696;51.426;6.934;2024-03-23T09:44:11;12.70;2.70
35027;DHT22;60696;51.426;6.934;2024-03-23T09:46:36;12.20;22.80
35027;DHT22;60696;51.426;6.934;2024-03-23T09:49:08;12.00;1.00
35027;DHT22;60696;51.426;6.934;2024-03-23T09:51:36;11.40;99.90
35027;DHT22;60696;51.426;6.934;2024-03-23T09:54:02;10.80;99.90
35027;DHT22;60696;51.426;6.934;2024-03-23T09:56:28;10.20;1.00
35027;DHT22;60696;51.426;6.934;2024-03-23T09:59:01;10.70;1.00
35027;DHT22;60696;51.426;6.934;2024-03-23T10:01:27;11.20;6.90
35027;DHT22;60696;51.426;6.934;2024-03-23T10:03:53;10.40;1.00
35027;DHT22;60696;51.426;6.934;2024-03-23T10:06:22;10.10;99.90
35027;DHT22;60696;51.426;6.934;2024-03-23T10:08:48;11.50;99.90
35027;DHT22;60696;51.426;6.934;2024-03-23T10:11:15;13.00;69.60
35027;DHT22;60696;51.426;6.934;2024-03-23T10:13:44;12.10;99.90
35027;DHT22;60696;51.426;6.934;2024-03-23T10:16:12;12.20;1.00
35027;DHT22;60696;51.426;6.934;2024-03-23T10:18:38;12.00;99.90
35027;DHT22;60696;51.426;6.934;2024-03-23T10:21:10;11.40;99.90
35027;DHT22;60696;51.426;6.934;2024-03-23T10:23:41;11.60;99.90
35027;DHT22;60696;51.426;6.934;2024-03-23T10:28:59;13.30;99.90
35027;DHT22;60696;51.426;6.934;2024-03-23T10:31:27;13.10;99.90
35027;DHT22;60696;51.426;6.934;2024-03-23T10:33:53;12.60;99.90
35027;DHT22;60696;51.426;6.934;2024-03-23T10:36:21;12.60;99.90
35027;DHT22;60696;51.426;6.934;2024-03-23T10:38:47;12.10;99.90
35027;DHT22;60696;51.426;6.934;2024-03-23T10:41:14;11.40;99.90
35027;DHT22;60696;51.426;6.934;2024-03-23T10:43:40;11.00;99.90
35027;DHT22;60696;51.426;6.934;2024-03-23T10:46:08;10.20;99.90
35027;DHT22;60696;51.426;6.934;2024-03-23T10:48:34;9.10;99.90
35027;DHT22;60696;51.426;6.934;2024-03-23T10:51:00;7.60;99.90
35027;DHT22;60696;51.426;6.934;2024-03-23T10:53:27;6.70;1.00
35027;DHT22;60696;51.426;6.934;2024-03-23T10:55:55;6.30;99.90
35027;DHT22;60696;51.426;6.934;2024-03-23T10:58:31;6.30;99.90
35027;DHT22;60696;51.426;6.934;2024-03-23T11:00:59;6.50;99.90
35027;DHT22;60696;51.426;6.934;2024-03-23T11:03:31;6.30;1.00
35027;DHT22;60696;51.426;6.934;2024-03-23T11:05:58;6.50;99.90
35027;DHT22;60696;51.426;6.934;2024-03-23T11:08:38;6.70;99.90
35027;DHT22;60696;51.426;6.934;2024-03-23T11:11:22;7.00;99.90
35027;DHT22;60696;51.426;6.934;2024-03-23T11:13:51;7.40;99.90
35027;DHT22;60696;51.426;6.934;2024-03-23T11:16:21;7.80;12.50
35027;DHT22;60696;51.426;6.934;2024-03-23T11:18:47;8.50;99.90
35027;DHT22;60696;51.426;6.934;2024-03-23T11:21:51;9.30;1.00
35027;DHT22;60696;51.426;6.934;2024-03-23T11:24:17;9.80;1.00
35027;DHT22;60696;51.426;6.934;2024-03-23T11:26:44;9.70;99.90
35027;DHT22;60696;51.426;6.934;2024-03-23T11:29:14;10.20;99.90
35027;DHT22;60696;51.426;6.934;2024-03-23T11:31:47;10.80;1.00
35027;DHT22;60696;51.426;6.934;2024-03-23T11:34:15;11.00;51.80
35027;DHT22;60696;51.426;6.934;2024-03-23T11:36:41;11.30;99.90
35027;DHT22;60696;51.426;6.934;2024-03-23T11:39:18;11.30;99.90
35027;DHT22;60696;51.426;6.934;2024-03-23T11:41:55;11.70;1.00
35027;DHT22;60696;51.426;6.934;2024-03-23T11:44:22;11.50;57.50
35027;DHT22;60696;51.426;6.934;2024-03-23T11:46:49;11.60;1.00
35027;DHT22;60696;51.426;6.934;2024-03-23T11:49:28;11.80;7.50
35027;DHT22;60696;51.426;6.934;2024-03-23T11:51:56;11.30;99.90
35027;DHT22;60696;51.426;6.934;2024-03-23T11:54:23;10.80;1.00
35027;DHT22;60696;51.426;6.934;2024-03-23T11:57:03;10.40;99.90
35027;DHT22;60696;51.426;6.934;2024-03-23T12:01:56;11.30;99.90
35027;DHT22;60696;51.426;6.934;2024-03-23T12:04:29;10.80;99.90
35027;DHT22;60696;51.426;6.934;2024-03-23T12:07:14;10.20;99.90
35027;DHT22;60696;51.426;6.934;2024-03-23T12:09:40;9.40;99.90
35027;DHT22;60696;51.426;6.934;2024-03-23T12:12:13;9.00;99.90
35027;DHT22;60696;51.426;6.934;2024-03-23T12:14:40;8.90;1.00
35027;DHT22;60696;51.426;6.934;2024-03-23T12:17:13;8.70;1.00
35027;DHT22;60696;51.426;6.934;2024-03-23T12:19:39;8.60;1.00
35027;DHT22;60696;51.426;6.934;2024-03-23T12:22:06;8.70;1.00
35027;DHT22;60696;51.426;6.934;2024-03-23T12:24:33;8.80;99.90
35027;DHT22;60696;51.426;6.934;2024-03-23T12:27:04;9.20;99.90
35027;DHT22;60696;51.426;6.934;2024-03-23T12:29:34;9.20;1.00
35027;DHT22;60696;51.426;6.934;2024-03-23T12:32:00;9.00;1.70
35027;DHT22;60696;51.426;6.934;2024-03-23T12:34:27;9.00;99.90
35027;DHT22;60696;51.426;6.934;2024-03-23T12:36:53;9.30;99.90
35027;DHT22;60696;51.426;6.934;2024-03-23T12:39:19;9.60;99.90
35027;DHT22;60696;51.426;6.934;2024-03-23T12:41:47;10.00;66.70
35027;DHT22;60696;51.426;6.934;2024-03-23T12:44:13;10.50;1.00
35027;DHT22;60696;51.426;6.934;2024-03-23T12:46:39;10.30;1.00
35027;DHT22;60696;51.426;6.934;2024-03-23T12:49:05;10.40;1.00
35027;DHT22;60696;51.426;6.934;2024-03-23T12:51:31;10.10;99.90
35027;DHT22;60696;51.426;6.934;2024-03-23T12:53:57;9.70;99.90
35027;DHT22;60696;51.426;6.934;2024-03-23T12:56:22;9.50;1.00
35027;DHT22;60696;51.426;6.934;2024-03-23T12:58:48;9.10;1.00
35027;DHT22;60696;51.426;6.934;2024-03-23T13:01:17;8.50;99.90
35027;DHT22;60696;51.426;6.934;2024-03-23T13:03:42;8.20;99.90
35027;DHT22;60696;51.426;6.934;2024-03-23T13:06:10;7.90;99.90
35027;DHT22;60696;51.426;6.934;2024-03-23T13:08:36;7.60;1.00
35027;DHT22;60696;51.426;6.934;2024-03-23T13:11:01;7.50;1.00
35027;DHT22;60696;51.426;6.934;2024-03-23T13:13:27;7.90;18.70
35027;DHT22;60696;51.426;6.934;2024-03-23T13:15:53;8.60;99.90
35027;DHT22;60696;51.426;6.934;2024-03-23T13:18:18;9.00;99.90
35027;DHT22;60696;51.426;6.934;2024-03-23T13:20:44;9.10;99.90
35027;DHT22;60696;51.426;6.934;2024-03-23T13:23:09;9.30;1.00
35027;DHT22;60696;51.426;6.934;2024-03-23T13:25:35;9.20;99.90
35027;DHT22;60696;51.426;6.934;2024-03-23T13:28:02;9.60;99.90
35027;DHT22;60696;51.426;6.934;2024-03-23T13:30:29;9.70;1.00
35027;DHT22;60696;51.426;6.934;2024-03-23T13:32:54;9.60;1.00
35027;DHT22;60696;51.426;6.934;2024-03-23T13:35:21;9.80;99.90
35027;DHT22;60696;51.426;6.934;2024-03-23T13:37:46;10.30;99.90
35027;DHT22;60696;51.426;6.934;2024-03-23T13:40:12;10.10;1.00
35027;DHT22;60696;51.426;6.934;2024-03-23T13:42:38;9.60;1.00
35027;DHT22;60696;51.426;6.934;2024-03-23T13:45:04;9.20;1.00
35027;DHT22;60696;51.426;6.934;2024-03-23T13:47:29;8.80;1.00
35027;DHT22;60696;51.426;6.934;2024-03-23T13:49:55;8.60;99.90
35027;DHT22;60696;51.426;6.934;2024-03-23T13:52:21;8.50;99.90
35027;DHT22;60696;51.426;6.934;2024-03-23T13:54:51;8.60;1.00
35027;DHT22;60696;51.426;6.934;2024-03-23T13:57:17;9.00;99.90
35027;DHT22;60696;51.426;6.934;2024-03-23T13:59:45;9.60;1.00
35027;DHT22;60696;51.426;6.934;2024-03-23T14:02:11;10.20;99.90
35027;DHT22;60696;51.426;6.934;2024-03-23T14:04:40;10.20;99.90
35027;DHT22;60696;51.426;6.934;2024-03-23T14:07:05;9.80;99.90
35027;DHT22;60696;51.426;6.934;2024-03-23T14:09:32;9.80;99.90
35027;DHT22;60696;51.426;6.934;2024-03-23T14:11:58;9.80;99.90
35027;DHT22;60696;51.426;6.934;2024-03-23T14:14:25;9.70;99.90
35027;DHT22;60696;51.426;6.934;2024-03-23T14:16:51;9.60;99.90
35027;DHT22;60696;51.426;6.934;2024-03-23T14:19:16;9.60;99.90
35027;DHT22;60696;51.426;6.934;2024-03-23T14:21:42;9.60;99.90
35027;DHT22;60696;51.426;6.934;2024-03-23T14:24:08;9.40;99.90
35027;DHT22;60696;51.426;6.934;2024-03-23T14:26:34;9.20;99.90
35027;DHT22;60696;51.426;6.934;2024-03-23T14:29:01;9.10;99.90
35027;DHT22;60696;51.426;6.934;2024-03-23T14:31:26;8.90;99.90
35027;DHT22;60696;51.426;6.934;2024-03-23T14:33:52;8.90;99.90
35027;DHT22;60696;51.426;6.934;2024-03-23T14:36:17;9.00;99.90
35027;DHT22;60696;51.426;6.934;2024-03-23T14:38:52;9.30;99.90
35027;DHT22;60696;51.426;6.934;2024-03-23T14:41:18;9.50;99.90
35027;DHT22;60696;51.426;6.934;2024-03-23T14:43:43;9.30;99.90
35027;DHT22;60696;51.426;6.934;2024-03-23T14:46:13;9.10;99.90
35027;DHT22;60696;51.426;6.934;2024-03-23T14:48:40;8.90;99.90
35027;DHT22;60696;51.426;6.934;2024-03-23T14:51:08;8.70;99.90
35027;DHT22;60696;51.426;6.934;2024-03-23T14:53:37;8.50;99.90
35027;DHT22;60696;51.426;6.934;2024-03-23T14:56:06;8.40;99.90
35027;DHT22;60696;51.426;6.934;2024-03-23T14:58:31;8.30;99.90
35027;DHT22;60696;51.426;6.934;2024-03-23T15:01:05;8.40;99.90
35027;DHT22;60696;51.426;6.934;2024-03-23T15:03:34;8.50;1.00
35027;DHT22;60696;51.426;6.934;2024-03-23T15:06:00;8.60;1.00
35027;DHT22;60696;51.426;6.934;2024-03-23T15:08:27;8.50;1.00
35027;DHT22;60696;51.426;6.934;2024-03-23T15:10:59;8.40;1.00
35027;DHT22;60696;51.426;6.934;2024-03-23T15:13:24;8.50;1.00
35027;DHT22;60696;51.426;6.934;2024-03-23T15:15:50;8.80;1.00
35027;DHT22;60696;51.426;6.934;2024-03-23T15:18:17;9.20;1.00
35027;DHT22;60696;51.426;6.934;2024-03-23T15:20:58;9.30;99.90
35027;DHT22;60696;51.426;6.934;2024-03-23T15:23:35;9.20;99.90
35027;DHT22;60696;51.426;6.934;2024-03-23T15:26:02;9.10;99.90
35027;DHT22;60696;51.426;6.934;2024-03-23T15:28:28;9.10;99.90
35027;DHT22;60696;51.426;6.934;2024-03-23T15:31:10;9.00;99.90
35027;DHT22;60696;51.426;6.934;2024-03-23T15:33:36;8.90;99.90
35027;DHT22;60696;51.426;6.934;2024-03-23T15:36:03;8.80;99.90
35027;DHT22;60696;51.426;6.934;2024-03-23T15:38:29;8.90;99.90
35027;DHT22;60696;51.426;6.934;2024-03-23T15:40:58;9.00;99.90
35027;DHT22;60696;51.426;6.934;2024-03-23T15:43:24;8.90;99.90
35027;DHT22;60696;51.426;6.934;2024-03-23T15:45:56;8.70;99.90
35027;DHT22;60696;51.426;6.934;2024-03-23T15:48:21;8.80;99.90
35027;DHT22;60696;51.426;6.934;2024-03-23T15:50:51;8.60;99.90
35027;DHT22;60696;51.426;6.934;2024-03-23T15:53:18;8.40;99.90
35027;DHT22;60696;51.426;6.934;2024-03-23T15:55:43;8.20;99.90
35027;DHT22;60696;51.426;6.934;2024-03-23T15:58:09;8.10;99.90
35027;DHT22;60696;51.426;6.934;2024-03-23T16:00:34;7.90;99.90
35027;DHT22;60696;51.426;6.934;2024-03-23T16:03:00;8.00;99.90
35027;DHT22;60696;51.426;6.934;2024-03-23T16:05:25;8.00;99.90
35027;DHT22;60696;51.426;6.934;2024-03-23T16:07:53;8.00;1.00
35027;DHT22;60696;51.426;6.934;2024-03-23T16:10:18;8.00;99.90
35027;DHT22;60696;51.426;6.934;2024-03-23T16:12:44;7.90;99.90
35027;DHT22;60696;51.426;6.934;2024-03-23T16:15:10;7.90;1.00
35027;DHT22;60696;51.426;6.934;2024-03-23T16:17:35;7.90;1.00
35027;DHT22;60696;51.426;6.934;2024-03-23T16:20:03;8.00;1.00
35027;DHT22;60696;51.426;6.934;2024-03-23T16:22:29;8.10;1.00
35027;DHT22;60696;51.426;6.934;2024-03-23T16:24:54;8.30;99.90
35027;DHT22;60696;51.426;6.934;2024-03-23T16:27:20;8.20;99.90
35027;DHT22;60696;51.426;6.934;2024-03-23T16:29:45;8.00;99.90
35027;DHT22;60696;51.426;6.934;2024-03-23T16:32:11;8.10;99.90
35027;DHT22;60696;51.426;6.934;2024-03-23T16:34:37;8.00;99.90
35027;DHT22;60696;51.426;6.934;2024-03-23T16:37:03;8.00;99.90
35027;DHT22;60696;51.426;6.934;2024-03-23T16:39:29;7.90;99.90
35027;DHT22;60696;51.426;6.934;2024-03-23T16:41:54;7.80;99.90
35027;DHT22;60696;51.426;6.934;2024-03-23T16:44:20;7.80;99.90
35027;DHT22;60696;51.426;6.934;2024-03-23T16:46:46;7.60;99.90
35027;DHT22;60696;51.426;6.934;2024-03-23T16:49:13;7.40;99.90
35027;DHT22;60696;51.426;6.934;2024-03-23T16:51:39;7.30;99.90
35027;DHT22;60696;51.426;6.934;2024-03-23T16:54:04;7.20;1.00
35027;DHT22;60696;51.426;6.934;2024-03-23T16:56:30;7.10;1.00
35027;DHT22;60696;51.426;6.934;2024-03-23T16:58:55;7.10;1.00
35027;DHT22;60696;51.426;6.934;2024-03-23T17:01:21;7.00;1.00
35027;DHT22;60696;51.426;6.934;2024-03-23T17:03:50;7.00;1.00
35027;DHT22;60696;51.426;6.934;2024-03-23T17:06:17;7.10;1.00
35027;DHT22;60696;51.426;6.934;2024-03-23T17:08:44;7.10;1.00
35027;DHT22;60696;51.426;6.934;2024-03-23T17:11:10;7.00;1.00
35027;DHT22;60696;51.426;6.934;2024-03-23T17:13:39;6.90;1.00
35027;DHT22;60696;51.426;6.934;2024-03-23T17:16:05;6.70;99.90
35027;DHT22;60696;51.426;6.934;2024-03-23T17:18:31;6.50;99.90
35027;DHT22;60696;51.426;6.934;2024-03-23T17:20:57;6.40;1.00
35027;DHT22;60696;51.426;6.934;2024-03-23T17:23:27;6.20;1.00
35027;DHT22;60696;51.426;6.934;2024-03-23T17:25:53;6.10;99.90
35027;DHT22;60696;51.426;6.934;2024-03-23T17:28:19;6.00;99.90
35027;DHT22;60696;51.426;6.934;2024-03-23T17:30:45;6.00;1.00
35027;DHT22;60696;51.426;6.934;2024-03-23T17:33:15;6.00;1.00
35027;DHT22;60696;51.426;6.934;2024-03-23T17:35:45;6.00;99.90
35027;DHT22;60696;51.426;6.934;2024-03-23T17:38:11;6.00;1.00
35027;DHT22;60696;51.426;6.934;2024-03-23T17:40:37;6.10;1.00
35027;DHT22;60696;51.426;6.934;2024-03-23T17:43:02;6.00;99.90
35027;DHT22;60696;51.426;6.934;2024-03-23T17:45:29;6.10;1.00
35027;DHT22;60696;51.426;6.934;2024-03-23T17:47:54;6.00;99.90
35027;DHT22;60696;51.426;6.934;2024-03-23T17:50:22;6.10;99.90
35027;DHT22;60696;51.426;6.934;2024-03-23T17:52:48;5.90;99.90
35027;DHT22;60696;51.426;6.934;2024-03-23T17:55:13;5.80;99.90
35027;DHT22;60696;51.426;6.934;2024-03-23T17:57:42;5.70;99.90
35027;DHT22;60696;51.426;6.934;2024-03-23T18:00:08;5.60;99.90
35027;DHT22;60696;51.426;6.934;2024-03-23T18:02:34;5.50;23.60
35027;DHT22;60696;51.426;6.934;2024-03-23T18:05:00;5.40;99.90
35027;DHT22;60696;51.426;6.934;2024-03-23T18:07:26;5.30;95.10
35027;DHT22;60696;51.426;6.934;2024-03-23T18:09:51;5.30;99.90
35027;DHT22;60696;51.426;6.934;2024-03-23T18:12:17;5.20;99.90
35027;DHT22;60696;51.426;6.934;2024-03-23T18:14:44;5.20;99.90
35027;DHT22;60696;51.426;6.934;2024-03-23T18:17:09;5.20;99.90
35027;DHT22;60696;51.426;6.934;2024-03-23T18:19:35;5.20;99.90
35027;DHT22;60696;51.426;6.934;2024-03-23T18:22:00;5.10;99.90
35027;DHT22;60696;51.426;6.934;2024-03-23T18:24:26;5.00;99.90
35027;DHT22;60696;51.426;6.934;2024-03-23T18:26:52;5.00;1.00
35027;DHT22;60696;51.426;6.934;2024-03-23T18:29:17;5.00;1.00
35027;DHT22;60696;51.426;6.934;2024-03-23T18:31:43;5.00;1.00
35027;DHT22;60696;51.426;6.934;2024-03-23T18:34:09;4.90;1.00
35027;DHT22;60696;51.426;6.934;2024-03-23T18:36:34;4.80;25.20
35027;DHT22;60696;51.426;6.934;2024-03-23T18:39:00;4.80;9.10
35027;DHT22;60696;51.426;6.934;2024-03-23T18:41:28;4.80;34.60
35027;DHT22;60696;51.426;6.934;2024-03-23T18:43:55;4.70;99.90
35027;DHT22;60696;51.426;6.934;2024-03-23T18:46:21;4.60;99.90
35027;DHT22;60696;51.426;6.934;2024-03-23T18:48:47;4.60;99.90
35027;DHT22;60696;51.426;6.934;2024-03-23T18:51:13;4.60;99.90
35027;DHT22;60696;51.426;6.934;2024-03-23T18:53:38;4.60;98.30
35027;DHT22;60696;51.426;6.934;2024-03-23T18:56:04;4.50;99.90
35027;DHT22;60696;51.426;6.934;2024-03-23T18:58:30;4.50;99.90
35027;DHT22;60696;51.426;6.934;2024-03-23T19:00:57;4.50;99.90
35027;DHT22;60696;51.426;6.934;2024-03-23T19:03:24;4.40;99.90
35027;DHT22;60696;51.426;6.934;2024-03-23T19:08:19;4.40;99.90
35027;DHT22;60696;51.426;6.934;2024-03-23T19:11:09;4.40;99.90
35027;DHT22;60696;51.426;6.934;2024-03-23T19:13:34;4.40;99.90
35027;DHT22;60696;51.426;6.934;2024-03-23T19:16:01;4.40;1.00
35027;DHT22;60696;51.426;6.934;2024-03-23T19:18:27;4.50;1.00
35027;DHT22;60696;51.426;6.934;2024-03-23T19:20:56;4.50;85.80
35027;DHT22;60696;51.426;6.934;2024-03-23T19:23:23;4.70;8.90
35027;DHT22;60696;51.426;6.934;2024-03-23T19:25:52;4.80;1.00
35027;DHT22;60696;51.426;6.934;2024-03-23T19:28:19;4.80;1.00
35027;DHT22;60696;51.426;6.934;2024-03-23T19:30:46;5.00;99.90
35027;DHT22;60696;51.426;6.934;2024-03-23T19:33:12;5.00;99.90
35027;DHT22;60696;51.426;6.934;2024-03-23T19:35:38;5.10;93.20
35027;DHT22;60696;51.426;6.934;2024-03-23T19:38:05;5.10;71.00
35027;DHT22;60696;51.426;6.934;2024-03-23T19:40:30;5.10;1.00
35027;DHT22;60696;51.426;6.934;2024-03-23T19:42:56;5.00;1.00
35027;DHT22;60696;51.426;6.934;2024-03-23T19:45:22;5.00;99.90
35027;DHT22;60696;51.426;6.934;2024-03-23T19:47:47;5.00;99.90
35027;DHT22;60696;51.426;6.934;2024-03-23T19:50:13;5.00;99.90
35027;DHT22;60696;51.426;6.934;2024-03-23T19:52:39;5.10;1.00
35027;DHT22;60696;51.426;6.934;2024-03-23T19:55:05;5.10;24.50
35027;DHT22;60696;51.426;6.934;2024-03-23T19:57:31;5.10;1.00
35027;DHT22;60696;51.426;6.934;2024-03-23T19:59:57;5.10;1.00
35027;DHT22;60696;51.426;6.934;2024-03-23T20:02:22;5.20;99.90
35027;DHT22;60696;51.426;6.934;2024-03-23T20:04:49;5.20;99.90
35027;DHT22;60696;51.426;6.934;2024-03-23T20:07:15;5.20;99.90
35027;DHT22;60696;51.426;6.934;2024-03-23T20:09:40;5.20;99.90
35027;DHT22;60696;51.426;6.934;2024-03-23T20:12:06;5.20;99.90
35027;DHT22;60696;51.426;6.934;2024-03-23T20:14:33;5.20;1.00
35027;DHT22;60696;51.426;6.934;2024-03-23T20:16:58;5.20;59.40
35027;DHT22;60696;51.426;6.934;2024-03-23T20:19:24;5.20;54.40
35027;DHT22;60696;51.426;6.934;2024-03-23T20:21:50;5.20;99.90
35027;DHT22;60696;51.426;6.934;2024-03-23T20:24:15;5.30;99.90
35027;DHT22;60696;51.426;6.934;2024-03-23T20:26:41;5.30;99.90
35027;DHT22;60696;51.426;6.934;2024-03-23T20:29:07;5.30;1.00
35027;DHT22;60696;51.426;6.934;2024-03-23T20:31:32;5.30;99.90
35027;DHT22;60696;51.426;6.934;2024-03-23T20:33:58;5.30;99.90
35027;DHT22;60696;51.426;6.934;2024-03-23T20:36:24;5.10;1.00
35027;DHT22;60696;51.426;6.934;2024-03-23T20:38:50;5.30;99.90
35027;DHT22;60696;51.426;6.934;2024-03-23T20:41:15;5.60;1.00
35027;DHT22;60696;51.426;6.934;2024-03-23T20:43:42;5.60;99.90
35027;DHT22;60696;51.426;6.934;2024-03-23T20:46:11;5.60;41.40
35027;DHT22;60696;51.426;6.934;2024-03-23T20:48:37;5.50;1.00
35027;DHT22;60696;51.426;6.934;2024-03-23T20:51:07;5.40;99.90
35027;DHT22;60696;51.426;6.934;2024-03-23T20:53:36;5.20;1.00
35027;DHT22;60696;51.426;6.934;2024-03-23T20:56:02;5.20;99.90
35027;DHT22;60696;51.426;6.934;2024-03-23T20:58:30;5.00;1.00